Terminal Aerodrome Forecast
Issued by NWS Missoula, MT

Home | Current Version | Previous Version | Text Only | Print | Product List | Glossary On
Versions: 1 2 3 4 5 6 7 8 9 10 11 12
000
FTUS45 KMSO 181120
TAFMSO
TAF
KMSO 181120Z 1812/1912 00000KT P6SM SKC
     FM181600 21006KT P6SM VCSH SCT080 BKN120
     FM182100 28010G20KT P6SM BKN120
     FM190300 VRB05KT P6SM BKN120=

USA.gov is the U.S. government's official web portal to all federal, state and local government web resources and services.